createdAt,value
2023-02-11T00:01:10.243Z,18.90
2023-02-11T00:05:17.117Z,11.20
2023-02-11T00:09:22.410Z,17.40
2023-02-11T00:13:28.109Z,16.60
2023-02-11T00:17:33.460Z,22.10
2023-02-11T00:21:38.760Z,20.20
2023-02-11T00:25:44.870Z,16.90
2023-02-11T00:29:50.154Z,20.90
2023-02-11T00:33:55.407Z,19.90
2023-02-11T00:38:00.637Z,15.20
2023-02-11T00:42:05.970Z,24.60
2023-02-11T00:46:11.309Z,20.80
2023-02-11T00:50:16.662Z,16.20
2023-02-11T00:54:21.911Z,17.60
2023-02-11T00:58:27.129Z,14.60
2023-02-11T01:02:32.422Z,16.10
2023-02-11T01:06:37.639Z,18.00
2023-02-11T01:10:44.059Z,12.30
2023-02-11T01:14:49.598Z,13.30
2023-02-11T01:18:54.875Z,17.40
2023-02-11T01:23:00.150Z,12.70
2023-02-11T01:27:05.410Z,13.50
2023-02-11T01:31:10.746Z,13.40
2023-02-11T01:35:16.081Z,14.70
2023-02-11T01:39:21.332Z,13.20
2023-02-11T01:43:27.576Z,13.10
2023-02-11T01:47:32.874Z,12.30
2023-02-11T01:51:40.582Z,17.10
2023-02-11T01:56:03.514Z,15.70
2023-02-11T02:00:11.887Z,14.20
2023-02-11T02:04:18.956Z,11.20
2023-02-11T02:08:26.202Z,11.30
2023-02-11T02:12:31.476Z,13.40
2023-02-11T02:16:37.549Z,10.90
2023-02-11T02:21:04.005Z,18.00
2023-02-11T02:25:29.284Z,19.10
2023-02-11T02:29:44.760Z,12.60
2023-02-11T02:33:54.236Z,13.90
2023-02-11T02:38:02.697Z,16.60
2023-02-11T02:42:08.456Z,15.50
2023-02-11T02:46:17.821Z,16.50
2023-02-11T02:50:27.790Z,17.20
2023-02-11T02:54:50.823Z,13.40
2023-02-11T02:59:02.495Z,14.30
2023-02-11T03:03:15.639Z,14.20
2023-02-11T03:07:24.097Z,16.50
2023-02-11T03:11:30.171Z,8.30
2023-02-11T03:19:40.656Z,19.10
2023-02-11T03:23:49.269Z,12.60
2023-02-11T03:27:57.139Z,14.50
2023-02-11T03:32:04.258Z,13.20
2023-02-11T03:36:12.101Z,13.40
2023-02-11T03:40:20.122Z,11.90
2023-02-11T03:44:27.622Z,13.00
2023-02-11T03:48:34.483Z,11.70
2023-02-11T03:52:39.854Z,16.00
2023-02-11T03:56:46.884Z,15.00
2023-02-11T04:00:52.329Z,18.60
2023-02-11T04:04:57.645Z,12.30
2023-02-11T04:09:03.058Z,13.30
2023-02-11T04:13:08.315Z,11.70
2023-02-11T04:17:13.776Z,15.80
2023-02-11T04:21:19.080Z,14.90
2023-02-11T04:25:24.402Z,12.10
2023-02-11T04:29:29.911Z,14.70
2023-02-11T04:33:35.143Z,10.10
2023-02-11T04:37:40.409Z,15.20
2023-02-11T04:41:45.622Z,13.80
2023-02-11T04:45:51.349Z,18.20
2023-02-11T04:49:56.910Z,16.80
2023-02-11T04:54:02.126Z,16.00
2023-02-11T04:58:07.384Z,14.80
2023-02-11T05:02:12.603Z,18.10
2023-02-11T05:06:17.828Z,13.70
2023-02-11T05:10:23.062Z,16.40
2023-02-11T05:14:28.338Z,21.90
2023-02-11T05:18:33.564Z,15.40
2023-02-11T05:22:38.803Z,21.50
2023-02-11T05:26:44.054Z,21.90
2023-02-11T05:30:49.709Z,13.30
2023-02-11T05:34:54.958Z,17.90
2023-02-11T05:39:00.211Z,16.60
2023-02-11T05:43:05.439Z,20.00
2023-02-11T05:47:10.667Z,20.00
2023-02-11T05:51:15.890Z,22.70
2023-02-11T05:55:21.325Z,16.00
2023-02-11T05:59:26.546Z,18.50
2023-02-11T06:03:31.853Z,15.10
2023-02-11T06:07:37.073Z,13.30
2023-02-11T06:11:42.307Z,24.10
2023-02-11T06:15:56.398Z,12.10
2023-02-11T06:20:02.951Z,22.70
2023-02-11T06:24:08.790Z,19.40
2023-02-11T06:28:14.117Z,15.20
2023-02-11T06:32:39.587Z,19.90
2023-02-11T06:36:45.404Z,16.20
2023-02-11T06:40:51.091Z,10.80
2023-02-11T06:44:56.298Z,18.30
2023-02-11T06:49:01.557Z,16.50
2023-02-11T06:53:06.794Z,16.30
2023-02-11T06:57:12.075Z,20.70
2023-02-11T07:01:17.544Z,15.80
2023-02-11T07:05:22.870Z,18.50
2023-02-11T07:09:28.147Z,19.80
2023-02-11T07:13:33.413Z,20.50
2023-02-11T07:17:38.738Z,22.00
2023-02-11T07:21:44.057Z,20.70
2023-02-11T07:25:49.644Z,15.60
2023-02-11T07:29:55.089Z,20.90
2023-02-11T07:34:01.054Z,18.90
2023-02-11T07:42:10.028Z,17.60
2023-02-11T07:46:16.172Z,23.60
2023-02-11T07:50:21.423Z,23.00
2023-02-11T07:54:26.612Z,20.40
2023-02-11T07:58:31.862Z,20.80
2023-02-11T08:02:37.104Z,10.80
2023-02-11T08:06:43.736Z,28.60
2023-02-11T08:10:49.206Z,21.70
2023-02-11T08:14:55.281Z,27.50
2023-02-11T08:19:02.876Z,16.70
2023-02-11T08:23:08.521Z,16.40
2023-02-11T08:27:13.763Z,28.40
2023-02-11T08:31:19.806Z,17.10
2023-02-11T08:35:26.368Z,19.60
2023-02-11T08:39:31.718Z,21.90
2023-02-11T08:43:37.165Z,25.00
2023-02-11T08:47:42.407Z,23.40
2023-02-11T08:51:47.857Z,21.40
2023-02-11T08:55:53.652Z,20.20
2023-02-11T09:04:02.706Z,17.40
2023-02-11T09:08:08.103Z,19.70
2023-02-11T09:12:13.335Z,20.80
2023-02-11T09:16:20.079Z,8.90
2023-02-11T09:20:26.537Z,21.80
2023-02-11T09:24:31.792Z,27.10
2023-02-11T09:28:37.169Z,11.80
2023-02-11T09:32:42.479Z,18.90
2023-02-11T09:36:54.498Z,15.60
2023-02-11T09:40:59.795Z,22.50
2023-02-11T09:45:05.873Z,22.50
2023-02-11T09:53:23.457Z,15.80
2023-02-11T09:57:37.764Z,23.30
2023-02-11T10:11:03.354Z,29.70
2023-02-11T10:15:34.112Z,8.70
2023-02-11T10:24:01.583Z,22.30
2023-02-11T10:28:13.686Z,18.90
2023-02-11T10:32:40.464Z,18.40
2023-02-11T10:37:00.567Z,22.60
2023-02-11T10:54:30.061Z,23.70
2023-02-11T10:58:38.247Z,26.30
2023-02-11T11:02:57.145Z,24.80
2023-02-11T11:07:35.600Z,22.00
2023-02-11T11:11:53.254Z,26.80
2023-02-11T11:16:40.119Z,26.60
2023-02-11T11:21:03.484Z,22.80
2023-02-11T11:29:57.916Z,24.40
2023-02-11T11:38:28.812Z,29.60
2023-02-11T11:42:40.584Z,23.40
2023-02-11T11:46:47.371Z,29.30
2023-02-11T11:51:07.290Z,31.60
2023-02-11T11:55:16.041Z,34.50
2023-02-11T11:59:33.334Z,32.10
2023-02-11T12:04:05.306Z,28.50
2023-02-11T12:08:36.317Z,23.70
2023-02-11T12:16:52.069Z,25.40
2023-02-11T12:25:41.801Z,25.00
2023-02-11T12:34:43.805Z,26.30
2023-02-11T12:39:14.889Z,21.20
2023-02-11T12:43:38.084Z,16.50
2023-02-11T12:52:04.390Z,16.10
2023-02-11T12:56:16.592Z,25.70
2023-02-11T13:00:23.434Z,26.40
2023-02-11T13:04:30.776Z,30.00
2023-02-11T13:08:40.437Z,27.50
2023-02-11T13:18:00.430Z,27.90
2023-02-11T13:22:10.193Z,16.50
2023-02-11T13:26:20.756Z,26.60
2023-02-11T13:30:30.568Z,29.00
2023-02-11T13:34:49.342Z,25.90
2023-02-11T13:38:59.936Z,23.90
2023-02-11T13:43:06.293Z,27.80
2023-02-11T13:47:23.804Z,25.70
2023-02-11T13:51:38.830Z,25.00
2023-02-11T13:55:45.842Z,27.20
2023-02-11T13:59:52.298Z,19.20
2023-02-11T14:04:37.499Z,25.80
2023-02-11T14:08:59.857Z,11.40
2023-02-11T14:13:18.951Z,17.10
2023-02-11T14:17:31.228Z,20.90
2023-02-11T14:21:37.848Z,25.60
2023-02-11T14:25:44.514Z,28.00
2023-02-11T14:29:54.803Z,18.70
2023-02-11T14:34:17.262Z,17.40
2023-02-11T14:38:26.964Z,12.70
2023-02-11T14:42:32.330Z,17.50
2023-02-11T14:46:37.794Z,19.30
2023-02-11T14:50:45.302Z,17.60
2023-02-11T14:54:51.389Z,14.90
2023-02-11T14:58:56.756Z,15.80
2023-02-11T15:03:02.141Z,17.70
2023-02-11T15:07:08.088Z,18.30
2023-02-11T15:15:17.722Z,15.50
2023-02-11T15:23:28.214Z,15.20
2023-02-11T15:27:41.277Z,11.30
2023-02-11T15:31:46.547Z,15.70
2023-02-11T15:35:52.042Z,17.20
2023-02-11T15:40:09.054Z,17.30
2023-02-11T15:48:46.144Z,13.90
2023-02-11T15:52:52.014Z,17.20
2023-02-11T16:01:01.170Z,11.30
2023-02-11T16:05:08.231Z,14.40
2023-02-11T16:09:24.983Z,16.00
2023-02-11T16:13:33.695Z,17.70
2023-02-11T16:17:38.913Z,15.30
2023-02-11T16:21:45.489Z,16.00
2023-02-11T16:25:59.601Z,14.80
2023-02-11T16:30:05.782Z,17.90
2023-02-11T16:34:14.955Z,7.90
2023-02-11T16:38:20.465Z,11.20
2023-02-11T16:42:25.758Z,11.30
2023-02-11T16:46:31.993Z,13.10
2023-02-11T16:50:37.333Z,13.60
2023-02-11T16:54:42.578Z,14.20
2023-02-11T16:58:47.931Z,14.80
2023-02-11T17:02:53.538Z,11.60
2023-02-11T17:06:58.935Z,13.20
2023-02-11T17:11:04.503Z,13.80
2023-02-11T17:15:10.866Z,9.00
2023-02-11T17:19:17.233Z,14.00
2023-02-11T17:23:22.429Z,13.00
2023-02-11T17:27:28.499Z,12.30
2023-02-11T17:31:34.268Z,18.00
2023-02-11T17:35:42.132Z,12.20
2023-02-11T17:39:47.582Z,10.20
2023-02-11T17:43:52.935Z,15.70
2023-02-11T17:47:58.183Z,12.80
2023-02-11T17:52:03.534Z,14.40
2023-02-11T17:56:10.426Z,6.60
2023-02-11T18:00:17.109Z,9.70
2023-02-11T18:04:22.814Z,11.30
2023-02-11T18:08:28.523Z,9.80
2023-02-11T18:12:33.870Z,16.60
2023-02-11T18:16:43.361Z,12.80
2023-02-11T18:20:56.557Z,14.00
2023-02-11T18:25:02.316Z,15.90
2023-02-11T18:29:07.569Z,13.30
2023-02-11T18:33:14.609Z,12.70
2023-02-11T18:37:20.103Z,12.70
2023-02-11T18:41:25.362Z,9.80
2023-02-11T18:45:31.510Z,11.70
2023-02-11T18:49:36.889Z,11.60
2023-02-11T18:53:43.282Z,7.40
2023-02-11T18:57:48.715Z,9.90
2023-02-11T19:01:53.959Z,10.00
2023-02-11T19:05:59.210Z,11.70
2023-02-11T19:10:04.790Z,13.20
2023-02-11T19:14:11.174Z,11.10
2023-02-11T19:18:17.125Z,13.40
2023-02-11T19:22:22.454Z,15.90
2023-02-11T19:26:27.912Z,11.30
2023-02-11T19:30:33.243Z,12.70
2023-02-11T19:34:41.689Z,12.60
2023-02-11T19:38:47.453Z,15.50
2023-02-11T19:42:52.797Z,11.30
2023-02-11T19:46:58.148Z,5.20
2023-02-11T19:51:13.023Z,12.30
2023-02-11T19:55:18.791Z,9.30
2023-02-11T19:59:24.238Z,11.60
2023-02-11T20:03:29.488Z,13.50
2023-02-11T20:07:35.024Z,14.90
2023-02-11T20:11:40.797Z,8.80
2023-02-11T20:15:46.128Z,9.20
2023-02-11T20:19:51.604Z,9.40
2023-02-11T20:23:57.051Z,10.50
2023-02-11T20:28:02.361Z,8.20
2023-02-11T20:32:08.561Z,10.80
2023-02-11T20:36:15.672Z,4.40
2023-02-11T20:40:21.636Z,10.70
2023-02-11T20:44:27.091Z,17.50
2023-02-11T20:48:33.475Z,10.60
2023-02-11T20:52:38.923Z,11.00
2023-02-11T20:56:47.462Z,10.20
2023-02-11T21:00:53.518Z,8.30
2023-02-11T21:04:58.968Z,3.90
2023-02-11T21:09:04.733Z,9.80
2023-02-11T21:17:14.308Z,4.90
2023-02-11T21:21:20.470Z,5.60
2023-02-11T21:25:25.758Z,2.50
2023-02-11T21:29:31.069Z,5.70
2023-02-11T21:33:36.452Z,2.20
2023-02-11T21:37:41.708Z,2.00
2023-02-11T21:41:47.125Z,2.10
2023-02-11T21:45:52.612Z,2.60
2023-02-11T21:49:58.158Z,3.80
2023-02-11T21:54:03.801Z,1.30
2023-02-11T21:58:09.865Z,2.90
2023-02-11T22:02:15.224Z,2.30
2023-02-11T22:06:22.502Z,3.70
2023-02-11T22:10:27.763Z,2.00
2023-02-11T22:14:33.108Z,2.70
2023-02-11T22:18:38.872Z,1.60
2023-02-11T22:22:44.148Z,1.00
2023-02-11T22:26:49.461Z,1.40
2023-02-11T22:30:55.773Z,2.30
2023-02-11T22:35:01.192Z,1.50
2023-02-11T22:39:07.655Z,1.10
2023-02-11T22:43:13.009Z,1.20
2023-02-11T22:47:18.361Z,4.00
2023-02-11T22:51:24.321Z,1.90
2023-02-11T22:59:33.248Z,2.60
2023-02-11T23:03:38.631Z,2.70
2023-02-11T23:07:43.856Z,2.80
2023-02-11T23:11:50.008Z,1.90
2023-02-11T23:15:55.605Z,1.00
2023-02-11T23:20:01.112Z,3.50
2023-02-11T23:24:08.261Z,1.00
2023-02-11T23:28:13.770Z,2.40
2023-02-11T23:32:19.319Z,1.70
2023-02-11T23:36:24.718Z,3.30
2023-02-11T23:40:30.062Z,1.60
2023-02-11T23:44:35.312Z,2.50
2023-02-11T23:48:41.289Z,3.10
2023-02-11T23:56:50.448Z,3.90
